x

Portland 12 Nm Southeast Of Portland,me (44007) Wave Buoy

3:50 - Sat 3rd Dec 2016 All times are EST. -5 hours from GMT.

  • Sig Wave height 2.0ft
  • Swell Direction
  • Peak Period 9s
  • Average Period 4s
  • Wind
    18mph, 22mph gusts
  • Sea Temp 48°f
  • Air Temp 40°f
  • Sea Pressure 1005.2mb
  • Portland 12 Nm Southeast Of Portland,me
  • Portland 12 Nm Southeast Of Portland,me

More Historic Weather Station data

Upgrade to MSW Pro to gain access to the past 30 days of data for over 8000 Wavebouys and Weather Stations around the globe.

Join Pro

Comparision Forecast

View Surf forecast
   
sam. 12/03 3:50 2ft 9s 4s 18 22 mph 1005.2mb 48f 40f
2:50 2ft 10s 4s 18 22 mph 1005mb 48f 40f
1:50 2ft 9s 4s 18 22 mph 1004.9mb 48f 41f
12:50 2ft 10s 4s 20 25 mph 1004.3mb 48f 42f
ven. 12/02 11:50 2.5ft 10s 4s 16 20 mph 1004.2mb 48f 42f
10:50 2.5ft 9s 4s 11 13 mph 1004.3mb 49f 42f
9:50 2.5ft 9s 4s 18 22 mph 1003.7mb 49f 45f
7:50 2.5ft 9s 4s 22 25 mph 1004.1mb 48f 46f
6:50 2.5ft 9s 4s 20 27 mph 1004.2mb 49f 47f
5:50 2.5ft 9s 5s 22 27 mph 1004.2mb 48f 47f
4:50 2.5ft 10s 4s 16 18 mph 1004.6mb 49f 48f
3:50 2.5ft 10s 5s 20 22 mph 1003.9mb 49f 49f
2:50 2.5ft 10s 5s 20 22 mph 1003.9mb 48f 49f
1:50 2.5ft 10s 5s 13 18 mph 1003.9mb 48f 49f
12:50 2.5ft 10s 5s 18 22 mph 1003.8mb 48f 48f
11:50 2.5ft 10s 5s 16 20 mph 1004.3mb 48f 47f
10:50 2.5ft 11s 5s 11 16 mph 1005mb 48f 47f
9:50 3ft 10s 5s 11 16 mph 1005.9mb 48f 44f
8:50 3.5ft 10s 5s 13 16 mph 1005.8mb 48f 43f
7:50 3.5ft 10s 5s 13 16 mph 1005.9mb 48f 42f
6:50 3.5ft 9s 5s 16 18 mph 1005.5mb 48f 42f
5:50 3ft 10s 5s 13 18 mph 1005.2mb 48f 43f
4:50 3.5ft 9s 5s 16 20 mph 1003.9mb 48f 43f
3:50 3ft 10s 5s 18 22 mph 1003.6mb 48f 44f
2:50 3.5ft 10s 5s 18 22 mph 1003.3mb 49f 44f
1:50 3.5ft 9s 5s 20 25 mph 1002.7mb 50f 45f
12:50 3.5ft 9s 5s 20 25 mph 1001.7mb 50f 45f
jeu. 12/01 11:50 3.5ft 8s 5s 20 25 mph 1001.3mb 50f 45f
10:50 4ft 8s 5s 25 29 mph 1000.7mb 50f 46f
9:50 3.5ft 8s 5s 25 29 mph 1000mb 50f 46f
8:50 4.5ft 9s 5s 22 27 mph 999.5mb 50f 47f
7:50 4.5ft 9s 6s 20 25 mph 999.4mb 50f 47f
6:50 5ft 9s 6s 22 25 mph 999mb 50f 48f
5:50 5ft 9s 6s 20 25 mph 998.7mb 50f 49f
4:50 5.5ft 9s 7s 20 25 mph 997.9mb 51f 50f
3:50 5ft 9s 8s 11 16 mph 997.4mb 51f 50f
2:50 5.5ft 10s 8s 2 4 mph 997mb 51f 48f
1:50 7ft 9s 8s 4 7 mph 996.6mb 51f 47f
11:50 7ft 8s 7s 18 25 mph 995.8mb 51f 44f
10:50 9ft 8s 7s 20 27 mph 995.4mb 51f 44f
9:50 10ft 9s 7s 20 27 mph 994.5mb 51f 45f
8:50 10.5ft 8s 7s 25 29 mph 992.6mb 51f 47f
7:50 12ft 8s 7s 13 18 mph 991.8mb 51f 52f
6:50 11.5ft 8s 6s 22 27 mph 994mb 51f 51f
5:50 10ft 7s 6s 31 47 mph 995.4mb 51f 50f
4:50 8ft 7s 5s 31 38 mph 997.4mb 51f 49f
3:50 7ft 7s 5s 29 36 mph 1000.4mb 51f 49f
2:50 6.5ft 7s 5s 22 27 mph 1004.9mb 51f 48f
1:50 6.5ft 6s 5s 20 25 mph 1007.3mb 51f 48f
12:50 6.5ft 6s 5s 25 31 mph 1007.1mb 51f 48f
mer. 11/30 11:50 6ft 6s 5s 25 29 mph 1008.8mb 51f 48f
10:50 5.5ft 6s 5s 22 27 mph 1011.1mb 50f 47f
9:50 5.5ft 5s 5s 25 27 mph 1012.3mb 50f 47f
8:50 5ft 8s 5s 25 29 mph 1013.3mb 50f 47f
7:50 5ft 5s 5s 22 27 mph 1014.6mb 50f 46f
6:50 4.5ft 8s 5s 22 27 mph 1015.8mb 50f 46f
5:50 4ft 8s 5s 20 25 mph 1015.5mb 50f 45f
4:50 3.5ft 8s 5s 18 22 mph 1016.7mb 50f 44f
3:50 3ft 7s 5s 13 16 mph 1016.6mb 50f 44f
2:50 3ft 7s 5s 11 16 mph 1016mb 50f 43f
1:50 3ft 7s 5s 11 16 mph 1015.8mb 50f 43f
12:50 3ft 7s 5s 4 9 mph 1016.4mb 50f 42f
11:50 3ft 7s 5s 9 11 mph 1016.2mb 50f 42f
10:50 3.5ft 7s 5s 11 13 mph 1016mb 50f 42f
9:50 4ft 7s 6s 13 18 mph 1015.7mb 50f 42f
8:50 4.5ft 8s 6s 11 16 mph 1015.5mb 50f 42f
7:50 3.5ft 8s 6s 7 9 mph 1015mb 49f 41f
6:50 4ft 7s 6s 11 13 mph 1014.1mb 49f 41f
5:50 4.5ft 8s 6s 16 20 mph 1012.9mb 49f 42f
4:50 5ft 8s 6s 16 22 mph 1012.1mb 49f 41f
3:50 5.5ft 8s 6s 16 20 mph 1011.5mb 49f 40f
2:50 6ft 8s 6s 18 22 mph 1010.6mb 50f 40f
1:50 6ft 8s 6s 20 25 mph 1009.6mb 50f 40f
12:50 7.5ft 8s 6s 13 18 mph 1009.4mb 50f 40f
mar. 11/29 11:50 8ft 8s 6s 18 25 mph 1008.6mb 50f 40f
10:50 9.5ft 8s 7s 16 20 mph 1008.8mb 50f 42f
9:50 10.5ft 8s 6s 9 13 mph 1008.8mb 50f 49f
8:50 10ft 8s 6s 22 27 mph 1009.5mb 50f 53f
7:50 8ft 7s 5s 25 31 mph 1010.4mb 50f 52f
6:50 7.5ft 7s 5s 29 38 mph 1011mb 50f 51f
5:50 6.5ft 6s 5s 27 31 mph 1013mb 50f 51f
4:50 6ft 6s 5s 27 34 mph 1014.7mb 50f 50f
3:50 5.5ft 6s 5s 25 29 mph 1015.9mb 50f 49f
2:50 4.5ft 5s 4s 25 29 mph 1017.1mb 50f 48f
1:50 3.5ft 4s 4s 22 25 mph 1018.6mb 50f 47f
12:50 2.5ft 4s 4s 20 25 mph 1019.7mb 50f 47f
11:50 2.5ft 4s 3s 16 20 mph 1021.1mb 50f 47f
10:50 2ft 3s 3s 13 18 mph 1021.4mb 50f 47f
9:50 1.3ft 3s 3s 16 18 mph 1022.4mb 50f 46f